Time;durP1;ratioP1;P1;durP2;ratioP2;P2;SDS_P1;SDS_P2;PMS_P1;PMS_P2;Temp;Humidity;BMP_temperature;BMP_pressure;BME280_temperature;BME280_humidity;BME280_pressure;Samples;Min_cycle;Max_cycle;Signal;HPM_P1;HPM_P2
2023/04/04 00:00:01;;;;;;;;;;;;;;;2.30;61.05;102616.63;4123924;28;20021;-68
2023/04/04 00:02:03;;;;;;;;;;;;;;;2.31;61.00;102621.00;4123273;28;20021;-66
2023/04/04 00:04:06;;;;;;;;;;;;;;;2.28;60.96;102617.63;4124002;28;20044;-66
2023/04/04 00:06:08;;;;;;;;;;;;;;;2.29;61.02;102614.88;4124369;28;20379;-67
2023/04/04 00:08:10;;;;;;;;;;;;;;;2.28;60.90;102618.47;4123209;28;20001;-66
2023/04/04 00:10:12;;;;;;;;;;;;;;;2.24;61.01;102608.91;4123860;28;20009;-67
2023/04/04 00:12:15;;;;;;;;;;;;;;;2.23;60.91;102625.00;4123615;28;20025;-66
2023/04/04 00:14:17;;;;;;;;;;;;;;;2.21;61.05;102617.06;4123580;28;20459;-66
2023/04/04 00:16:19;;;;;;;;;;;;;;;2.22;61.15;102615.25;4123221;28;20370;-66
2023/04/04 00:18:21;;;;;;;;;;;;;;;2.21;61.21;102610.84;4122588;28;20426;-66
2023/04/04 00:20:24;;;;;;;;;;;;;;;2.22;61.17;102615.25;4123378;28;20033;-66
2023/04/04 00:22:27;;;;;;;;;;;;;;;2.22;60.86;102610.78;4131894;28;20025;-67
2023/04/04 00:24:29;;;;;;;;;;;;;;;2.22;60.95;102602.78;4140170;28;20016;-66
2023/04/04 00:26:31;;;;;;;;;;;;;;;2.23;60.72;102601.84;4138399;28;20061;-66
2023/04/04 00:28:33;;;;;;;;;;;;;;;2.25;60.82;102609.78;4140140;28;20373;-66
2023/04/04 00:30:35;;;;;;;;;;;;;;;2.26;60.80;102609.69;4139995;28;20360;-66
2023/04/04 00:32:37;;;;;;;;;;;;;;;2.25;60.82;102610.63;4139148;28;20659;-66
2023/04/04 00:34:39;;;;;;;;;;;;;;;2.24;60.78;102614.25;4140201;28;20024;-67
2023/04/04 00:36:42;;;;;;;;;;;;;;;2.23;60.87;102609.00;4137532;28;20017;-66
2023/04/04 00:38:45;;;;;;;;;;;;;;;2.20;60.84;102609.16;4139222;28;20009;-67
2023/04/04 00:40:47;;;;;;;;;;;;;;;2.18;61.13;102611.91;4138840;28;20037;-66
2023/04/04 00:42:49;;;;;;;;;;;;;;;2.21;61.01;102616.19;4153439;28;20004;-66
2023/04/04 00:44:52;;;;;;;;;;;;;;;2.21;60.81;102606.41;4138018;28;20025;-66
2023/04/04 00:46:53;;;;;;;;;;;;;;;2.17;60.86;102610.16;4137728;28;20012;-66
2023/04/04 00:48:56;;;;;;;;;;;;;;;2.12;61.00;102604.19;4138705;28;20460;-66
2023/04/04 00:50:58;;;;;;;;;;;;;;;2.10;61.25;102608.72;4145338;28;20479;-66
2023/04/04 00:53:01;;;;;;;;;;;;;;;2.09;61.35;102607.88;4138770;28;20028;-66
2023/04/04 00:55:03;;;;;;;;;;;;;;;2.10;61.31;102609.59;4144952;28;20030;-66
2023/04/04 00:57:06;;;;;;;;;;;;;;;2.08;61.28;102606.13;4137967;28;20020;-66
2023/04/04 00:59:08;;;;;;;;;;;;;;;2.05;61.40;102603.63;4139171;28;20052;-66
2023/04/04 01:01:10;;;;;;;;;;;;;;;2.06;61.32;102604.50;4139114;28;20016;-66
2023/04/04 01:03:13;;;;;;;;;;;;;;;2.07;61.43;102603.53;4138842;28;20024;-66
2023/04/04 01:05:16;;;;;;;;;;;;;;;2.04;61.38;102601.91;4139044;28;20020;-66
2023/04/04 01:07:18;;;;;;;;;;;;;;;2.07;61.29;102598.22;4138366;28;20060;-67
2023/04/04 01:09:21;;;;;;;;;;;;;;;2.04;61.28;102603.69;4144621;28;20032;-66
2023/04/04 01:11:24;;;;;;;;;;;;;;;2.01;61.47;102598.50;4160942;28;20020;-67
2023/04/04 01:13:26;;;;;;;;;;;;;;;1.99;61.46;102606.59;4138499;28;20028;-65
2023/04/04 01:15:29;;;;;;;;;;;;;;;1.96;61.42;102594.28;4138044;28;20025;-66
2023/04/04 01:17:30;;;;;;;;;;;;;;;1.92;61.50;102591.84;4137438;28;20016;-66
2023/04/04 01:19:33;;;;;;;;;;;;;;;1.91;61.37;102596.31;4137006;28;20627;-66
2023/04/04 01:21:38;;;;;;;;;;;;;;;1.87;61.52;102597.41;4136913;28;20020;-66
2023/04/04 01:23:45;;;;;;;;;;;;;;;1.86;61.87;102594.81;4161011;28;20019;-66
2023/04/04 01:25:49;;;;;;;;;;;;;;;1.79;61.58;102597.78;4145007;28;20028;-66
2023/04/04 01:27:52;;;;;;;;;;;;;;;1.77;61.83;102594.31;4137762;28;20032;-67
2023/04/04 01:29:54;;;;;;;;;;;;;;;1.78;61.83;102590.72;4144689;28;20512;-66
2023/04/04 01:31:57;;;;;;;;;;;;;;;1.76;62.21;102584.59;4143491;28;20008;-66
2023/04/04 01:34:02;;;;;;;;;;;;;;;1.75;62.11;102588.19;4160615;28;20019;-67
2023/04/04 01:36:05;;;;;;;;;;;;;;;1.72;62.19;102582.16;4144643;28;20032;-66
2023/04/04 01:38:11;;;;;;;;;;;;;;;1.69;62.54;102585.81;4158938;28;20024;-66
2023/04/04 01:40:15;;;;;;;;;;;;;;;1.70;62.43;102589.38;4137223;28;20635;-67
2023/04/04 01:42:19;;;;;;;;;;;;;;;1.72;62.45;102583.00;4159741;28;20443;-66
2023/04/04 01:44:22;;;;;;;;;;;;;;;1.69;62.47;102583.16;4153652;28;20020;-66
2023/04/04 01:46:25;;;;;;;;;;;;;;;1.71;62.50;102591.06;4136889;28;20044;-66
2023/04/04 01:48:27;;;;;;;;;;;;;;;1.69;62.44;102575.16;4137674;28;20016;-66
2023/04/04 01:50:30;;;;;;;;;;;;;;;1.66;62.61;102580.63;4137325;28;20016;-66
2023/04/04 01:52:33;;;;;;;;;;;;;;;1.68;62.42;102580.56;4136822;28;20028;-66
2023/04/04 01:54:36;;;;;;;;;;;;;;;1.69;62.45;102577.81;4136890;28;20016;-66
2023/04/04 01:56:38;;;;;;;;;;;;;;;1.72;62.46;102577.69;4137580;28;20429;-66
2023/04/04 01:58:42;;;;;;;;;;;;;;;1.70;62.44;102574.25;4136909;28;20020;-66
2023/04/04 02:00:44;;;;;;;;;;;;;;;1.71;62.53;102565.31;4153307;28;20430;-66
2023/04/04 02:02:46;;;;;;;;;;;;;;;1.75;62.52;102564.22;4152356;28;20019;-66
2023/04/04 02:04:48;;;;;;;;;;;;;;;1.74;62.41;102564.28;4152548;28;20027;-67
2023/04/04 02:06:51;;;;;;;;;;;;;;;1.61;62.34;102553.38;4138347;28;20789;-67
2023/04/04 02:08:53;;;;;;;;;;;;;;;1.60;62.79;102560.50;4136111;28;19930;-67
2023/04/04 02:10:57;;;;;;;;;;;;;;;1.59;62.72;102571.22;4138411;28;20016;-66
2023/04/04 02:12:59;;;;;;;;;;;;;;;1.57;63.05;102558.00;4137638;28;20447;-67
2023/04/04 02:15:02;;;;;;;;;;;;;;;1.54;63.09;102563.47;4136699;28;20028;-66
2023/04/04 02:17:07;;;;;;;;;;;;;;;1.57;63.01;102571.31;4136464;28;19929;-66
2023/04/04 02:19:09;;;;;;;;;;;;;;;1.58;63.05;102550.84;4144453;28;20032;-68
2023/04/04 02:21:12;;;;;;;;;;;;;;;1.57;62.97;102558.00;4135786;28;20455;-66
2023/04/04 02:23:14;;;;;;;;;;;;;;;1.54;62.77;102552.81;4122866;28;20016;-66
2023/04/04 02:25:16;;;;;;;;;;;;;;;1.50;62.99;102561.03;4122520;28;20017;-66
2023/04/04 02:27:18;;;;;;;;;;;;;;;1.47;63.24;102567.34;4122233;28;19971;-66
2023/04/04 02:29:20;;;;;;;;;;;;;;;1.51;63.21;102554.78;4121667;28;20020;-66
2023/04/04 02:31:23;;;;;;;;;;;;;;;1.49;63.10;102554.84;4136169;28;20036;-66
2023/04/04 02:33:26;;;;;;;;;;;;;;;1.47;63.34;102553.19;4121385;28;20041;-67
2023/04/04 02:35:32;;;;;;;;;;;;;;;1.46;63.43;102555.00;4127766;28;20484;-66
2023/04/04 02:37:34;;;;;;;;;;;;;;;1.47;63.23;102540.72;4120962;28;20028;-66
2023/04/04 02:39:38;;;;;;;;;;;;;;;1.46;63.47;102549.66;4128279;28;20017;-66
2023/04/04 02:41:40;;;;;;;;;;;;;;;1.48;63.28;102550.44;4121917;28;20419;-67
2023/04/04 02:43:42;;;;;;;;;;;;;;;1.47;63.22;102550.50;4122686;28;20028;-66
2023/04/04 02:45:45;;;;;;;;;;;;;;;1.44;63.35;102547.06;4124396;28;20028;-67
2023/04/04 02:47:56;;;;;;;;;;;;;;;1.45;63.29;102542.59;4146557;28;20020;-66
2023/04/04 02:50:04;;;;;;;;;;;;;;;1.42;63.45;102530.28;4146962;28;20470;-66
2023/04/04 02:52:07;;;;;;;;;;;;;;;1.44;63.47;102543.53;4155340;28;20012;-66
2023/04/04 02:54:14;;;;;;;;;;;;;;;1.40;63.32;102536.63;4130974;28;20033;-67
2023/04/04 02:56:19;;;;;;;;;;;;;;;1.38;63.41;102533.16;4130601;28;20041;-66
2023/04/04 02:58:21;;;;;;;;;;;;;;;1.41;63.54;102530.34;4130054;28;20430;-66
2023/04/04 03:00:23;;;;;;;;;;;;;;;1.40;63.48;102534.81;4125151;28;20017;-66
2023/04/04 03:02:25;;;;;;;;;;;;;;;1.36;63.44;102529.72;4123231;28;20005;-66
2023/04/04 03:04:29;;;;;;;;;;;;;;;1.32;63.56;102531.69;4124841;28;20020;-66
2023/04/04 03:06:32;;;;;;;;;;;;;;;1.32;63.70;102534.34;4130161;28;20947;-66
2023/04/04 03:08:35;;;;;;;;;;;;;;;1.28;63.76;102535.41;4129728;28;20056;-67
2023/04/04 03:10:36;;;;;;;;;;;;;;;1.27;63.79;102536.38;4130902;28;20029;-66
2023/04/04 03:12:39;;;;;;;;;;;;;;;1.28;63.90;102532.75;4154775;28;20015;-66
2023/04/04 03:14:41;;;;;;;;;;;;;;;1.29;63.93;102526.50;4123438;28;20033;-66
2023/04/04 03:16:44;;;;;;;;;;;;;;;1.27;63.80;102528.38;4129569;28;20012;-66
2023/04/04 03:18:45;;;;;;;;;;;;;;;1.25;64.16;102517.81;4140043;28;20023;-66
2023/04/04 03:21:09;;;;;;;;;;;;;;;1.23;64.08;102524.97;4124759;28;20061;-66
2023/04/04 03:23:11;;;;;;;;;;;;;;;1.21;64.23;102531.31;4124093;28;20017;-66
2023/04/04 03:25:13;;;;;;;;;;;;;;;1.19;64.17;102522.53;4146491;28;20020;-66
2023/04/04 03:27:15;;;;;;;;;;;;;;;1.17;64.20;102522.59;4124198;28;20467;-67
2023/04/04 03:29:17;;;;;;;;;;;;;;;1.19;64.40;102522.53;4124425;28;20024;-67
2023/04/04 03:31:20;;;;;;;;;;;;;;;1.18;64.28;102518.16;4123534;28;20032;-66
2023/04/04 03:33:22;;;;;;;;;;;;;;;1.17;64.20;102517.28;4122797;28;20018;-66
2023/04/04 03:35:24;;;;;;;;;;;;;;;1.16;64.28;102504.94;4123281;28;20021;-66
2023/04/04 03:37:27;;;;;;;;;;;;;;;1.19;64.33;102510.09;4138181;28;20020;-66
2023/04/04 03:39:29;;;;;;;;;;;;;;;1.23;64.29;102517.00;4137671;28;20024;-66
2023/04/04 03:41:31;;;;;;;;;;;;;;;1.25;64.23;102503.59;4129633;28;20361;-66
2023/04/04 03:43:33;;;;;;;;;;;;;;;1.26;64.03;102505.34;4124079;28;20012;-67
2023/04/04 03:45:35;;;;;;;;;;;;;;;1.22;63.99;102509.97;4124489;28;20016;-66
2023/04/04 03:47:37;;;;;;;;;;;;;;;1.23;64.08;102501.00;4123860;28;20032;-66
2023/04/04 03:49:40;;;;;;;;;;;;;;;1.21;64.15;102505.56;4122298;28;20033;-65
2023/04/04 03:51:42;;;;;;;;;;;;;;;1.21;64.31;102496.72;4123751;28;20036;-65
2023/04/04 03:53:46;;;;;;;;;;;;;;;1.23;64.15;102493.03;4129100;28;20025;-68
2023/04/04 03:55:48;;;;;;;;;;;;;;;1.24;64.14;102496.56;4123551;28;20028;-66
2023/04/04 03:57:50;;;;;;;;;;;;;;;1.24;63.97;102485.94;4129641;28;20032;-67
2023/04/04 03:59:52;;;;;;;;;;;;;;;1.24;64.01;102483.28;4155323;28;20024;-65
2023/04/04 04:01:57;;;;;;;;;;;;;;;1.23;64.03;102486.84;4120905;28;20456;-65
2023/04/04 04:03:59;;;;;;;;;;;;;;;1.22;63.91;102488.66;4122600;28;20884;-65
2023/04/04 04:06:02;;;;;;;;;;;;;;;1.19;63.99;102483.50;4123079;28;20024;-66
2023/04/04 04:08:04;;;;;;;;;;;;;;;1.16;64.18;102488.97;4122117;28;20479;-66
2023/04/04 04:10:08;;;;;;;;;;;;;;;1.14;64.39;102487.28;4122652;28;20029;-67
2023/04/04 04:12:10;;;;;;;;;;;;;;;1.15;64.17;102483.72;4122072;28;20024;-67
2023/04/04 04:14:12;;;;;;;;;;;;;;;1.16;64.27;102483.63;4120916;28;20056;-66
2023/04/04 04:16:14;;;;;;;;;;;;;;;1.15;64.15;102487.22;4137731;28;20024;-66
2023/04/04 04:18:17;;;;;;;;;;;;;;;1.08;64.29;102489.31;4127606;28;20025;-66
2023/04/04 04:20:19;;;;;;;;;;;;;;;1.05;64.61;102483.25;4128303;28;20024;-66
2023/04/04 04:22:25;;;;;;;;;;;;;;;1.09;64.42;102500.81;4123392;28;20017;-65
2023/04/04 04:24:27;;;;;;;;;;;;;;;1.09;64.32;102490.16;4124124;28;20021;-66
2023/04/04 04:26:30;;;;;;;;;;;;;;;1.10;64.60;102485.69;4145225;28;20397;-66
2023/04/04 04:28:32;;;;;;;;;;;;;;;1.11;64.38;102488.28;4144599;28;20408;-66
2023/04/04 04:30:34;;;;;;;;;;;;;;;1.13;64.26;102483.78;4127751;28;20396;-66
2023/04/04 04:32:37;;;;;;;;;;;;;;;1.12;64.37;102484.69;4128431;28;20044;-66
2023/04/04 04:34:40;;;;;;;;;;;;;;;1.09;64.38;102490.16;4154605;28;20037;-66
2023/04/04 04:36:42;;;;;;;;;;;;;;;1.11;64.50;102490.09;4123172;28;20038;-67
2023/04/04 04:39:02;;;;;;;;;;;;;;;1.13;64.28;102494.44;4153849;28;20032;-65
2023/04/04 04:41:08;;;;;;;;;;;;;;;1.12;64.39;102495.34;4122148;28;20444;-65
2023/04/04 04:43:18;;;;;;;;;;;;;;;1.12;64.22;102494.50;4135324;28;20013;-67
2023/04/04 04:45:23;;;;;;;;;;;;;;;1.08;64.49;102499.97;4121557;28;20136;-66
2023/04/04 04:47:36;;;;;;;;;;;;;;;1.12;64.34;102494.50;4145115;28;20016;-66
2023/04/04 04:49:43;;;;;;;;;;;;;;;1.09;64.39;102498.16;4144932;28;20169;-66
2023/04/04 04:51:47;;;;;;;;;;;;;;;1.07;64.48;102506.22;4128210;28;20024;-65
2023/04/04 04:53:51;;;;;;;;;;;;;;;1.06;64.55;102504.47;4128560;28;20072;-67
2023/04/04 04:55:54;;;;;;;;;;;;;;;1.07;64.54;102497.38;4121413;28;20025;-65
2023/04/04 04:57:56;;;;;;;;;;;;;;;1.07;64.67;102506.22;4153231;28;20029;-66
2023/04/04 05:00:03;;;;;;;;;;;;;;;1.09;64.61;102503.47;4121203;28;20013;-68
2023/04/04 05:02:05;;;;;;;;;;;;;;;1.07;64.41;102500.88;4120964;28;20111;-66
2023/04/04 05:04:16;;;;;;;;;;;;;;;1.05;64.67;102493.91;4128571;28;20020;-65
2023/04/04 05:06:31;;;;;;;;;;;;;;;1.08;64.68;102501.75;4143123;28;20075;-66
2023/04/04 05:08:33;;;;;;;;;;;;;;;1.08;64.51;102507.06;4127447;28;20025;-65
2023/04/04 05:10:46;;;;;;;;;;;;;;;1.07;64.90;102506.22;4138262;28;19979;-66
2023/04/04 05:12:49;;;;;;;;;;;;;;;1.06;64.66;102506.28;4126876;28;20041;-66
2023/04/04 05:14:57;;;;;;;;;;;;;;;1.13;64.76;102504.19;4120345;28;20025;-67
2023/04/04 05:17:00;;;;;;;;;;;;;;;1.12;64.59;102508.66;4142867;28;20024;-63
2023/04/04 05:19:06;;;;;;;;;;;;;;;1.11;64.81;102512.25;4127195;28;20020;-65
2023/04/04 05:21:15;;;;;;;;;;;;;;;1.12;64.73;102518.44;4153438;28;20032;-65
2023/04/04 05:23:17;;;;;;;;;;;;;;;1.13;64.80;102520.16;4120429;28;20020;-66
2023/04/04 05:25:19;;;;;;;;;;;;;;;1.15;64.95;102521.81;4152842;28;20045;-66
2023/04/04 05:27:22;;;;;;;;;;;;;;;1.16;64.95;102528.88;4121976;28;20025;-67
2023/04/04 05:29:30;;;;;;;;;;;;;;;1.20;64.74;102530.44;4122079;28;20037;-67
2023/04/04 05:31:33;;;;;;;;;;;;;;;1.21;64.66;102529.50;4121263;28;20388;-66
2023/04/04 05:33:40;;;;;;;;;;;;;;;1.19;64.59;102531.41;4123433;28;20635;-66
2023/04/04 05:35:50;;;;;;;;;;;;;;;1.17;65.01;102537.72;4143261;28;20174;-67
2023/04/04 05:37:53;;;;;;;;;;;;;;;1.16;64.89;102534.19;4135885;28;20027;-67
2023/04/04 05:39:56;;;;;;;;;;;;;;;1.14;64.92;102530.72;4110767;28;20024;-67
2023/04/04 05:41:59;;;;;;;;;;;;;;;1.11;65.18;102530.88;4127092;28;20016;-66
2023/04/04 05:44:04;;;;;;;;;;;;;;;1.14;65.30;102532.53;4128029;28;20117;-66
2023/04/04 05:46:06;;;;;;;;;;;;;;;1.17;65.32;102540.38;4122206;28;20020;-66
2023/04/04 05:48:15;;;;;;;;;;;;;;;1.20;65.41;102533.09;4133231;28;20040;-67
2023/04/04 05:50:25;;;;;;;;;;;;;;;1.21;65.19;102531.31;4136316;28;20016;-67
2023/04/04 05:52:33;;;;;;;;;;;;;;;1.23;65.27;102530.28;4127053;28;20024;-67
2023/04/04 05:54:35;;;;;;;;;;;;;;;1.26;65.21;102530.16;4127770;28;20032;-67
2023/04/04 05:56:42;;;;;;;;;;;;;;;1.28;65.07;102534.56;4120717;28;20649;-67
2023/04/04 05:58:51;;;;;;;;;;;;;;;1.28;65.32;102530.09;4120749;28;20024;-68
2023/04/04 06:00:54;;;;;;;;;;;;;;;1.29;65.14;102528.31;4121351;28;20009;-67
2023/04/04 06:02:57;;;;;;;;;;;;;;;1.33;65.30;102528.06;4136317;28;20012;-66
2023/04/04 06:05:02;;;;;;;;;;;;;;;1.35;65.19;102527.97;4122127;28;20045;-67
2023/04/04 06:07:12;;;;;;;;;;;;;;;1.38;65.03;102526.06;4127628;28;20016;-67
2023/04/04 06:09:13;;;;;;;;;;;;;;;1.42;65.04;102526.75;4136075;28;20032;-67
2023/04/04 06:11:15;;;;;;;;;;;;;;;1.45;65.05;102529.28;4121505;28;20030;-67
2023/04/04 06:13:17;;;;;;;;;;;;;;;1.49;65.00;102530.88;4120100;28;20018;-67
2023/04/04 06:15:25;;;;;;;;;;;;;;;1.53;65.04;102532.44;4125653;28;20020;-69
2023/04/04 06:17:27;;;;;;;;;;;;;;;1.57;64.73;102531.34;4127155;28;20029;-68
2023/04/04 06:19:30;;;;;;;;;;;;;;;1.59;64.57;102526.81;4123009;28;19989;-68
2023/04/04 06:21:33;;;;;;;;;;;;;;;1.62;64.37;102531.13;4121355;28;20020;-67
2023/04/04 06:23:36;;;;;;;;;;;;;;;1.65;64.34;102533.66;4129703;28;20465;-67
2023/04/04 06:25:38;;;;;;;;;;;;;;;1.68;64.45;102537.94;4129786;28;20520;-67
2023/04/04 06:27:41;;;;;;;;;;;;;;;1.71;64.13;102536.03;4121639;28;20012;-67
2023/04/04 06:29:43;;;;;;;;;;;;;;;1.75;64.25;102532.25;4131613;28;20048;-66
2023/04/04 06:31:47;;;;;;;;;;;;;;;1.79;64.07;102531.16;4146591;28;20506;-68
2023/04/04 06:33:55;;;;;;;;;;;;;;;1.83;64.13;102531.00;4130894;28;20040;-66
2023/04/04 06:35:59;;;;;;;;;;;;;;;1.85;64.03;102532.69;4124226;28;20044;-70
2023/04/04 06:38:03;;;;;;;;;;;;;;;1.88;63.68;102543.19;4124163;28;20032;-67
2023/04/04 06:40:07;;;;;;;;;;;;;;;1.88;63.62;102534.31;4119528;28;20017;-68
2023/04/04 06:42:11;;;;;;;;;;;;;;;1.90;63.40;102535.97;4120443;28;20020;-68
2023/04/04 06:44:15;;;;;;;;;;;;;;;1.95;63.49;102541.06;4127176;28;20032;-67
2023/04/04 06:46:17;;;;;;;;;;;;;;;1.99;63.54;102537.28;4122304;28;20024;-68
2023/04/04 06:48:19;;;;;;;;;;;;;;;2.02;63.32;102534.47;4123563;28;20405;-67
2023/04/04 06:50:22;;;;;;;;;;;;;;;2.04;63.01;102537.06;4123847;28;20028;-68
2023/04/04 06:52:25;;;;;;;;;;;;;;;2.05;62.92;102542.31;4123565;28;20262;-67
2023/04/04 06:54:27;;;;;;;;;;;;;;;2.09;63.05;102537.72;4124511;28;20014;-67
2023/04/04 06:56:30;;;;;;;;;;;;;;;2.12;62.79;102538.41;4124002;28;20021;-68
2023/04/04 06:58:33;;;;;;;;;;;;;;;2.16;62.48;102537.31;4130409;28;20024;-70
2023/04/04 07:00:35;;;;;;;;;;;;;;;2.18;62.23;102537.25;4138533;28;20024;-67
2023/04/04 07:02:38;;;;;;;;;;;;;;;2.20;61.82;102529.16;4121971;28;20017;-67
2023/04/04 07:04:40;;;;;;;;;;;;;;;2.26;61.74;102535.03;4124515;28;20009;-67
2023/04/04 07:06:42;;;;;;;;;;;;;;;2.30;61.58;102533.97;4124023;28;20021;-67
2023/04/04 07:08:45;;;;;;;;;;;;;;;2.33;61.65;102530.25;4124974;28;20017;-68
2023/04/04 07:10:47;;;;;;;;;;;;;;;2.36;61.35;102534.56;4124790;28;20024;-69
2023/04/04 07:12:51;;;;;;;;;;;;;;;2.38;61.21;102530.88;4124169;28;20452;-68
2023/04/04 07:14:52;;;;;;;;;;;;;;;2.43;61.41;102531.50;4124383;28;20016;-66
2023/04/04 07:16:54;;;;;;;;;;;;;;;2.47;61.24;102535.72;4123286;28;20468;-67
2023/04/04 07:18:58;;;;;;;;;;;;;;;2.52;61.12;102530.16;4122198;28;20388;-66
2023/04/04 07:21:01;;;;;;;;;;;;;;;2.55;61.01;102532.66;4124708;28;20471;-66
2023/04/04 07:23:03;;;;;;;;;;;;;;;2.59;61.06;102523.56;4123552;28;20026;-67
2023/04/04 07:25:05;;;;;;;;;;;;;;;2.63;60.89;102524.25;4123063;28;20044;-67
2023/04/04 07:27:07;;;;;;;;;;;;;;;2.66;60.53;102522.28;4124039;28;20025;-68
2023/04/04 07:29:10;;;;;;;;;;;;;;;2.68;60.49;102519.53;4123978;28;20243;-67
2023/04/04 07:31:13;;;;;;;;;;;;;;;2.71;60.34;102522.03;4124717;28;20020;-66
2023/04/04 07:33:15;;;;;;;;;;;;;;;2.73;60.22;102517.50;4123239;28;20021;-69
2023/04/04 07:35:18;;;;;;;;;;;;;;;2.76;60.32;102512.00;4124110;28;20021;-68
2023/04/04 07:37:20;;;;;;;;;;;;;;;2.79;60.17;102501.16;4123248;28;20460;-67
2023/04/04 07:39:22;;;;;;;;;;;;;;;2.81;60.07;102512.59;4124061;28;20005;-67
2023/04/04 07:41:24;;;;;;;;;;;;;;;2.85;59.98;102507.94;4123057;28;20452;-67
2023/04/04 07:43:27;;;;;;;;;;;;;;;2.87;59.77;102509.59;4123667;28;20378;-67
2023/04/04 07:45:30;;;;;;;;;;;;;;;2.87;59.37;102501.59;4123987;28;20016;-66
2023/04/04 07:47:32;;;;;;;;;;;;;;;2.92;59.43;102497.81;4123729;28;20021;-68
2023/04/04 07:49:34;;;;;;;;;;;;;;;2.94;59.30;102502.09;4123542;28;20041;-68
2023/04/04 07:51:36;;;;;;;;;;;;;;;2.96;59.30;102502.03;4123311;28;20017;-68
2023/04/04 07:53:38;;;;;;;;;;;;;;;2.98;59.21;102497.47;4123717;28;20357;-67
2023/04/04 07:55:41;;;;;;;;;;;;;;;3.01;58.76;102500.84;4123573;28;20021;-67
2023/04/04 07:57:43;;;;;;;;;;;;;;;3.05;58.44;102506.88;4122878;28;20040;-66
2023/04/04 07:59:46;;;;;;;;;;;;;;;3.10;58.65;102502.13;4123094;28;20028;-67
2023/04/04 08:01:49;;;;;;;;;;;;;;;3.13;58.87;102499.28;4123429;28;20017;-67
2023/04/04 08:03:52;;;;;;;;;;;;;;;3.17;58.37;102495.50;4129278;28;20017;-66
2023/04/04 08:05:54;;;;;;;;;;;;;;;3.22;58.77;102492.56;4123706;28;20453;-66
2023/04/04 08:07:56;;;;;;;;;;;;;;;3.24;58.49;102491.56;4123086;28;20021;-66
2023/04/04 08:09:58;;;;;;;;;;;;;;;3.29;57.67;102491.31;4123325;28;20042;-67
2023/04/04 08:12:01;;;;;;;;;;;;;;;3.31;58.12;102489.41;4122911;28;20042;-67
2023/04/04 08:14:03;;;;;;;;;;;;;;;3.36;58.40;102489.13;4123364;28;20409;-68
2023/04/04 08:16:06;;;;;;;;;;;;;;;3.40;57.88;102490.66;4123143;28;20013;-67
2023/04/04 08:18:10;;;;;;;;;;;;;;;3.43;58.17;102488.69;4122855;28;20030;-68
2023/04/04 08:20:12;;;;;;;;;;;;;;;3.46;58.16;102482.31;4123278;28;20020;-66
2023/04/04 08:22:14;;;;;;;;;;;;;;;3.49;56.95;102479.47;4122337;28;20016;-66
2023/04/04 08:24:16;;;;;;;;;;;;;;;3.51;57.43;102476.69;4123049;28;20025;-66
2023/04/04 08:26:18;;;;;;;;;;;;;;;3.55;57.65;102480.94;4123049;28;20017;-66
2023/04/04 08:28:20;;;;;;;;;;;;;;;3.58;57.52;102473.59;4129715;28;20370;-66
2023/04/04 08:30:22;;;;;;;;;;;;;;;3.63;57.74;102477.81;4130966;28;20091;-67
2023/04/04 08:32:25;;;;;;;;;;;;;;;3.64;57.62;102483.06;4134178;28;20012;-67
2023/04/04 08:34:28;;;;;;;;;;;;;;;3.68;57.08;102479.25;4140977;28;20012;-68
2023/04/04 08:36:30;;;;;;;;;;;;;;;3.70;56.65;102471.16;4138522;28;20367;-67
2023/04/04 08:38:33;;;;;;;;;;;;;;;3.73;56.47;102479.88;4139158;28;20455;-65
2023/04/04 08:40:35;;;;;;;;;;;;;;;3.75;57.15;102477.09;4139178;28;20021;-67
2023/04/04 08:42:38;;;;;;;;;;;;;;;3.77;56.28;102468.03;4138764;28;20020;-66
2023/04/04 08:44:40;;;;;;;;;;;;;;;3.80;56.41;102469.66;4139198;28;20459;-66
2023/04/04 08:46:42;;;;;;;;;;;;;;;3.83;56.87;102469.50;4139235;28;20029;-68
2023/04/04 08:48:44;;;;;;;;;;;;;;;3.88;56.99;102471.88;4139139;28;20029;-67
2023/04/04 08:50:47;;;;;;;;;;;;;;;3.93;56.51;102472.47;4138868;28;20033;-66
2023/04/04 08:52:49;;;;;;;;;;;;;;;3.96;56.35;102481.16;4137859;28;20013;-66
2023/04/04 08:54:51;;;;;;;;;;;;;;;3.97;56.42;102480.22;4139015;28;20036;-66
2023/04/04 08:57:00;;;;;;;;;;;;;;;4.01;53.84;102470.19;4144424;28;19929;-68
2023/04/04 08:59:02;;;;;;;;;;;;;;;4.01;56.00;102464.84;4145161;28;20096;-66
2023/04/04 09:01:04;;;;;;;;;;;;;;;4.06;55.58;102469.91;4138638;28;20012;-67
2023/04/04 09:03:09;;;;;;;;;;;;;;;4.09;55.50;102467.94;4138092;28;20385;-66
2023/04/04 09:05:12;;;;;;;;;;;;;;;4.12;55.70;102464.19;4139407;28;20019;-67
2023/04/04 09:07:16;;;;;;;;;;;;;;;4.15;55.74;102462.22;4138379;28;20012;-67
2023/04/04 09:09:21;;;;;;;;;;;;;;;4.19;55.97;102473.59;4145087;28;20016;-66
2023/04/04 09:11:23;;;;;;;;;;;;;;;4.21;55.89;102470.81;4138320;28;20020;-67
2023/04/04 09:13:25;;;;;;;;;;;;;;;4.24;55.55;102466.13;4138598;28;20008;-67
2023/04/04 09:15:27;;;;;;;;;;;;;;;4.28;55.30;102461.47;4139276;28;20355;-66
2023/04/04 09:17:29;;;;;;;;;;;;;;;4.29;55.54;102458.69;4130150;28;20016;-66
2023/04/04 09:19:31;;;;;;;;;;;;;;;4.31;55.35;102459.47;4138971;28;20028;-66
2023/04/04 09:21:33;;;;;;;;;;;;;;;4.32;55.52;102455.81;4143679;28;20020;-67
2023/04/04 09:23:38;;;;;;;;;;;;;;;4.37;55.52;102454.69;4138360;28;20012;-66
2023/04/04 09:25:44;;;;;;;;;;;;;;;4.39;54.20;102453.66;4139090;28;20017;-67
2023/04/04 09:27:49;;;;;;;;;;;;;;;4.39;53.87;102442.94;4138392;28;20060;-67
2023/04/04 09:30:01;;;;;;;;;;;;;;;4.40;55.06;102446.47;4138115;28;20378;-67
2023/04/04 09:32:05;;;;;;;;;;;;;;;4.38;55.24;102451.06;4143949;28;20024;-67
2023/04/04 09:34:07;;;;;;;;;;;;;;;4.39;55.33;102448.31;4138697;28;20033;-68
2023/04/04 09:36:11;;;;;;;;;;;;;;;4.42;55.04;102453.47;4138544;28;20391;-67
2023/04/04 09:38:14;;;;;;;;;;;;;;;4.44;54.92;102448.88;4138085;28;20008;-68
2023/04/04 09:40:18;;;;;;;;;;;;;;;4.47;54.90;102455.84;4138292;28;20016;-67
2023/04/04 09:42:25;;;;;;;;;;;;;;;4.50;54.86;102451.16;4138027;28;20005;-67
2023/04/04 09:44:32;;;;;;;;;;;;;;;4.54;54.87;102453.66;4138541;28;20020;-67
2023/04/04 09:46:36;;;;;;;;;;;;;;;4.58;54.44;102445.34;4137321;28;19960;-67
2023/04/04 09:48:38;;;;;;;;;;;;;;;4.61;54.51;102447.81;4138500;28;20020;-67
2023/04/04 09:50:45;;;;;;;;;;;;;;;4.64;54.87;102446.75;4138699;28;20016;-67
2023/04/04 09:52:48;;;;;;;;;;;;;;;4.67;54.34;102451.91;4137070;28;20009;-67
2023/04/04 09:54:57;;;;;;;;;;;;;;;4.67;54.44;102451.91;4138538;28;20368;-66
2023/04/04 09:57:00;;;;;;;;;;;;;;;4.69;54.33;102455.38;4137788;28;20016;-68
2023/04/04 09:59:02;;;;;;;;;;;;;;;4.67;54.43;102450.13;4138296;28;20044;-66
2023/04/04 10:01:08;;;;;;;;;;;;;;;4.68;54.37;102449.13;4138026;28;20024;-68
2023/04/04 10:03:11;;;;;;;;;;;;;;;4.66;54.64;102442.19;4137993;28;20357;-67
2023/04/04 10:05:13;;;;;;;;;;;;;;;4.67;54.68;102442.09;4138432;28;20017;-66
2023/04/04 10:07:15;;;;;;;;;;;;;;;4.70;54.58;102441.00;4137398;28;20016;-67
2023/04/04 10:09:17;;;;;;;;;;;;;;;4.73;54.21;102442.66;4138216;28;20375;-67
2023/04/04 10:11:29;;;;;;;;;;;;;;;4.71;54.46;102442.75;4137978;28;20024;-67
2023/04/04 10:13:34;;;;;;;;;;;;;;;4.71;54.42;102437.38;4138184;28;20017;-68
2023/04/04 10:15:37;;;;;;;;;;;;;;;4.70;54.76;102430.31;4137878;28;20024;-68
2023/04/04 10:17:40;;;;;;;;;;;;;;;4.69;54.59;102437.50;4138304;28;20004;-68
2023/04/04 10:19:42;;;;;;;;;;;;;;;4.72;53.34;102439.13;4138307;28;20028;-67
2023/04/04 10:21:44;;;;;;;;;;;;;;;4.72;53.82;102427.53;4137781;28;20021;-67
2023/04/04 10:23:46;;;;;;;;;;;;;;;4.71;53.51;102440.06;4138292;28;20016;-68
2023/04/04 10:25:48;;;;;;;;;;;;;;;4.73;53.61;102437.28;4137115;28;20024;-68
2023/04/04 10:27:50;;;;;;;;;;;;;;;4.72;54.32;102427.53;4137508;28;20021;-69
2023/04/04 10:29:53;;;;;;;;;;;;;;;4.73;54.31;102432.78;4138178;28;20028;-69
2023/04/04 10:31:57;;;;;;;;;;;;;;;4.79;54.03;102428.88;4137707;28;20021;-67
2023/04/04 10:34:02;;;;;;;;;;;;;;;4.87;54.02;102416.72;4137827;28;20020;-67
2023/04/04 10:36:04;;;;;;;;;;;;;;;4.98;53.54;102431.22;4138302;28;20028;-67
2023/04/04 10:38:07;;;;;;;;;;;;;;;5.01;53.39;102428.34;4137695;28;20024;-67
2023/04/04 10:40:10;;;;;;;;;;;;;;;5.01;53.60;102423.84;4137957;28;20013;-68
2023/04/04 10:42:11;;;;;;;;;;;;;;;5.03;53.43;102423.75;4137248;28;20024;-67